Time;durP1;ratioP1;P1;durP2;ratioP2;P2;SDS_P1;SDS_P2;PMS_P1;PMS_P2;Temp;Humidity;BMP_temperature;BMP_pressure;BME280_temperature;BME280_humidity;BME280_pressure;Samples;Min_cycle;Max_cycle;Signal;HPM_P1;HPM_P2
2021/04/16 00:38:30;;;;;;;6.55;2.33;;;4.60;99.90;;;;;;5025927;28;20211;-81
2021/04/16 00:48:07;;;;;;;4.32;2.25;;;4.60;99.90;;;;;;4988342;28;20684;-82
2021/04/16 00:50:44;;;;;;;1.88;1.77;;;4.50;99.90;;;;;;5047029;28;20223;-82
2021/04/16 00:53:17;;;;;;;2.50;2.08;;;4.50;99.90;;;;;;5047434;28;20214;-82
2021/04/16 00:55:51;;;;;;;2.90;1.90;;;4.60;99.90;;;;;;5049053;28;20195;-80
2021/04/16 00:58:20;;;;;;;4.70;2.20;;;4.60;99.90;;;;;;5048338;28;20529;-81
2021/04/16 01:00:49;;;;;;;2.72;1.85;;;4.60;99.90;;;;;;5048480;28;20258;-82
2021/04/16 01:03:16;;;;;;;3.05;2.22;;;4.60;99.90;;;;;;5046225;28;20234;-81
2021/04/16 01:05:43;;;;;;;3.47;2.38;;;4.60;99.90;;;;;;5046756;28;20211;-82
2021/04/16 01:08:11;;;;;;;5.28;2.47;;;4.40;99.90;;;;;;5055967;28;20204;-81
2021/04/16 01:10:38;;;;;;;4.03;1.92;;;4.70;99.90;;;;;;5056746;28;20250;-82
2021/04/16 01:13:06;;;;;;;7.85;1.90;;;4.50;99.90;;;;;;5049996;28;20214;-83
2021/04/16 01:15:38;;;;;;;2.28;1.60;;;4.60;99.90;;;;;;5048060;28;20205;-82
2021/04/16 01:18:11;;;;;;;1.60;1.50;;;4.80;99.90;;;;;;5046687;28;20211;-82
2021/04/16 01:31:47;;;;;;;2.90;2.10;;;4.60;99.90;;;;;;4854260;29;20230;-81
2021/04/16 01:34:39;;;;;;;1.83;1.70;;;4.70;99.90;;;;;;4970650;28;20214;-82
2021/04/16 01:37:09;;;;;;;2.25;1.85;;;;;;;;;;5045484;28;20207;-82
2021/04/16 01:39:45;;;;;;;8.00;1.90;;;;;;;;;;5048031;28;20219;-82
2021/04/16 01:42:20;;;;;;;2.67;1.98;;;;;;;;;;5046319;28;20203;-83
2021/04/16 01:45:16;;;;;;;1.90;1.50;;;4.70;99.90;;;;;;5045558;28;20203;-82
2021/04/16 01:47:51;;;;;;;2.42;1.88;;;;;;;;;;5045521;28;20288;-82
2021/04/16 01:50:22;;;;;;;2.35;1.88;;;;;;;;;;5045169;28;20223;-82
2021/04/16 01:52:54;;;;;;;3.10;1.60;;;;;;;;;;5043449;28;20215;-83
2021/04/16 01:55:25;;;;;;;6.32;2.00;;;4.70;99.90;;;;;;5044949;28;20196;-82
2021/04/16 01:57:53;;;;;;;3.28;1.50;;;;;;;;;;5053849;28;20252;-82
2021/04/16 02:00:32;;;;;;;4.07;1.63;;;4.70;99.90;;;;;;5055049;28;20238;-81
2021/04/16 02:03:03;;;;;;;2.00;1.75;;;4.20;99.90;;;;;;5046572;28;20199;-83
2021/04/16 02:05:59;;;;;;;1.80;1.70;;;4.40;99.90;;;;;;5045592;28;20538;-82
2021/04/16 02:08:30;;;;;;;2.35;1.83;;;;;;;;;;5008678;28;20207;-82
2021/04/16 02:11:09;;;;;;;1.85;1.70;;;;;;;;;;5045553;28;20294;-82
2021/04/16 02:13:36;;;;;;;2.90;2.20;;;;;;;;;;5044700;28;20230;-81
2021/04/16 02:16:10;;;;;;;2.80;2.10;;;;;;;;;;5045059;28;20195;-82
2021/04/16 02:19:02;;;;;;;9.32;2.20;;;4.80;99.90;;;;;;5044971;28;20199;-82
2021/04/16 02:21:33;;;;;;;3.40;1.90;;;;;;;;;;5040316;28;20215;-82
2021/04/16 02:24:08;;;;;;;3.45;1.70;;;;;;;;;;5044776;28;20228;-82
2021/04/16 02:27:07;;;;;;;1.70;1.60;;;4.90;99.90;;;;;;5049150;28;20183;-82
2021/04/16 02:29:38;;;;;;;3.03;1.60;;;4.80;99.90;;;;;;4965162;28;20234;-82
2021/04/16 02:32:07;;;;;;;2.72;1.80;;;4.80;99.90;;;;;;5044175;28;20253;-81
2021/04/16 02:34:38;;;;;;;2.35;1.75;;;4.70;99.90;;;;;;5045117;28;20333;-81
2021/04/16 02:37:09;;;;;;;3.40;1.65;;;4.80;99.90;;;;;;5044825;28;20199;-83
2021/04/16 02:39:42;;;;;;;7.50;1.73;;;;;;;;;;5045317;28;20231;-83
2021/04/16 02:42:16;;;;;;;5.20;1.90;;;;;;;;;;5047991;28;20214;-82
2021/04/16 02:44:53;;;;;;;2.53;1.50;;;;;;;;;;5047421;28;20204;-82
2021/04/16 02:50:29;;;;;;;6.85;2.10;;;4.80;99.90;;;;;;5032280;28;20587;-82
2021/04/16 02:52:56;;;;;;;6.25;2.40;;;;;;;;;;5044666;28;20191;-82
2021/04/16 02:55:25;;;;;;;6.85;2.08;;;;;;;;;;5044508;28;20227;-81
2021/04/16 02:57:56;;;;;;;3.38;1.88;;;;;;;;;;5053160;28;20238;-82
2021/04/16 03:00:28;;;;;;;1.63;1.52;;;4.70;99.90;;;;;;5049351;28;20220;-82
2021/04/16 03:02:56;;;;;;;2.35;1.50;;;;;;;;;;5046041;28;20433;-81
2021/04/16 03:05:35;;;;;;;5.07;1.80;;;4.80;99.90;;;;;;5059002;28;20234;-81
2021/04/16 03:08:01;;;;;;;1.55;1.45;;;;;;;;;;5058923;28;20187;-82
2021/04/16 03:10:37;;;;;;;4.18;2.28;;;4.80;99.90;;;;;;5058985;28;20212;-83
2021/04/16 03:13:07;;;;;;;1.90;1.60;;;;;;;;;;5058827;28;20188;-82
2021/04/16 03:15:43;;;;;;;2.20;1.48;;;4.70;99.90;;;;;;5057904;28;20227;-82
2021/04/16 03:18:27;;;;;;;3.53;1.70;;;;;;;;;;5051611;28;20512;-83
2021/04/16 04:10:24;;;;;;;;;;;;;;;;;;;;;
2021/04/16 04:22:16;;;;;;;2.88;1.30;;;4.70;99.90;;;;;;5029166;28;20195;-83
2021/04/16 04:24:50;;;;;;;2.97;2.30;;;;;;;;;;5045432;28;20245;-84
2021/04/16 04:30:20;;;;;;;7.88;3.55;;;4.60;99.90;;;;;;5046289;28;20224;-83
2021/04/16 04:32:48;;;;;;;2.45;1.65;;;;;;;;;;5048443;28;20192;-83
2021/04/16 04:35:18;;;;;;;3.65;1.80;;;;;;;;;;5049553;28;20211;-82
2021/04/16 04:37:53;;;;;;;2.55;2.05;;;;;;;;;;5049580;28;20200;-83
2021/04/16 04:40:22;;;;;;;3.30;1.60;;;4.70;99.90;;;;;;5051001;28;20234;-83
2021/04/16 04:42:51;;;;;;;3.33;1.80;;;;;;;;;;5049300;28;20207;-84
2021/04/16 04:45:24;;;;;;;3.58;1.83;;;;;;;;;;5051393;28;20223;-82
2021/04/16 04:47:51;;;;;;;8.75;2.00;;;;;;;;;;5050061;28;20207;-83
2021/04/16 04:50:18;;;;;;;3.72;1.83;;;4.80;99.90;;;;;;5053810;28;20216;-83
2021/04/16 04:52:46;;;;;;;1.48;1.38;;;;;;;;;;5048550;28;20208;-84
2021/04/16 04:55:17;;;;;;;3.67;1.92;;;4.70;99.90;;;;;;4931667;28;3364704;-83
2021/04/16 04:57:47;;;;;;;3.53;2.00;;;;;;;;;;5049040;28;20253;-83
2021/04/16 05:00:17;;;;;;;2.35;1.80;;;4.70;99.90;;;;;;5050169;28;20246;-84
2021/04/16 05:02:46;;;;;;;3.25;2.10;;;;;;;;;;5049207;28;20247;-83
2021/04/16 05:05:18;;;;;;;2.30;1.80;;;4.70;99.90;;;;;;5048991;28;20250;-83
2021/04/16 05:07:44;;;;;;;1.85;1.75;;;;;;;;;;5049730;28;20214;-83
2021/04/16 05:10:29;;;;;;;2.95;2.25;;;4.60;99.90;;;;;;5046818;28;20234;-83
2021/04/16 05:12:59;;;;;;;5.63;2.30;;;;;;;;;;5045858;28;20666;-83
2021/04/16 05:15:43;;;;;;;3.10;2.35;;;;;;;;;;5048317;28;20207;-83
2021/04/16 05:18:20;;;;;;;2.45;1.70;;;;;;;;;;5050142;28;20238;-83
2021/04/16 05:20:58;;;;;;;4.10;2.15;;;;;;;;;;5048949;28;20220;-83
2021/04/16 05:23:35;;;;;;;6.80;2.45;;;4.80;99.90;;;;;;5048239;28;20207;-83
2021/04/16 05:26:16;;;;;;;3.00;1.92;;;;;;;;;;5048294;28;20227;-83
2021/04/16 05:28:50;;;;;;;11.48;2.75;;;;;;;;;;5048940;28;20219;-82
2021/04/16 05:34:37;;;;;;;2.85;1.80;;;4.80;99.90;;;;;;5048079;28;20200;-82
2021/04/16 05:37:12;;;;;;;2.83;1.95;;;;;;;;;;5049637;28;20206;-83
2021/04/16 05:40:25;;;;;;;2.40;2.20;;;4.90;99.90;;;;;;5048123;28;20349;-83
2021/04/16 05:43:19;;;;;;;6.03;2.60;;;;;;;;;;5031887;28;20207;-82
2021/04/16 05:48:50;;;;;;;2.75;2.28;;;;;;;;;;5038844;28;20226;-83
2021/04/16 06:02:03;;;;;;;2.08;1.90;;;5.00;99.90;;;;;;4979630;28;20229;-82
2021/04/16 06:19:17;;;;;;;2.45;1.88;;;5.10;99.90;;;;;;4949563;28;20196;-83
2021/04/16 06:34:20;;;;;;;6.45;2.53;;;5.20;99.90;;;;;;5067991;28;20221;-82
2021/04/16 06:40:24;;;;;;;1.60;1.50;;;5.40;99.90;;;;;;5031717;28;20255;-82
2021/04/16 06:42:51;;;;;;;6.10;2.10;;;;;;;;;;5072215;28;20188;-83
2021/04/16 06:45:57;;;;;;;3.85;2.10;;;5.40;99.90;;;;;;5072929;28;20249;-83
2021/04/16 06:48:24;;;;;;;4.80;2.67;;;;;;;;;;5008403;28;20208;-81
2021/04/16 06:50:52;;;;;;;2.58;2.20;;;5.50;99.90;;;;;;5065884;28;20234;-82
2021/04/16 06:53:26;;;;;;;4.07;2.08;;;5.60;99.90;;;;;;5076208;28;20217;-82
2021/04/16 06:55:58;;;;;;;5.53;1.90;;;5.40;99.90;;;;;;5075376;28;20191;-80
2021/04/16 06:58:29;;;;;;;2.63;1.60;;;5.50;99.90;;;;;;5074090;28;20192;-82
2021/04/16 07:01:08;;;;;;;2.17;1.80;;;5.60;99.90;;;;;;5076846;28;20211;-82
2021/04/16 07:03:40;;;;;;;3.88;1.83;;;5.60;99.90;;;;;;5074958;28;20209;-82
2021/04/16 07:06:16;;;;;;;2.00;1.75;;;5.70;99.90;;;;;;5073459;28;20239;-82
2021/04/16 07:08:49;;;;;;;5.95;2.05;;;6.30;99.90;;;;;;5076054;28;20191;-82
2021/04/16 07:11:22;;;;;;;5.05;3.15;;;6.70;99.90;;;;;;5074905;28;20187;-82
2021/04/16 07:13:49;;;;;;;3.83;1.85;;;6.70;99.90;;;;;;5073841;28;20191;-82
2021/04/16 07:16:17;;;;;;;2.15;1.95;;;7.00;99.90;;;;;;5074546;28;20198;-81
2021/04/16 07:18:45;;;;;;;8.55;2.60;;;7.30;99.90;;;;;;5076843;28;20211;-83
2021/04/16 07:21:15;;;;;;;2.78;1.67;;;7.10;99.90;;;;;;5074760;28;20207;-82
2021/04/16 07:23:49;;;;;;;2.22;1.52;;;6.90;99.90;;;;;;5072361;28;20564;-83
2021/04/16 07:26:35;;;;;;;3.55;1.38;;;6.80;99.90;;;;;;5075271;28;20184;-81
2021/04/16 07:29:03;;;;;;;8.35;4.63;;;6.40;99.90;;;;;;5074772;28;20226;-82
2021/04/16 07:31:42;;;;;;;3.40;2.33;;;6.20;99.90;;;;;;5074692;28;20211;-81
2021/04/16 07:34:17;;;;;;;2.00;1.77;;;6.40;99.90;;;;;;5075601;28;20297;-81
2021/04/16 07:36:44;;;;;;;2.28;1.95;;;6.30;99.90;;;;;;5077338;28;20255;-83
2021/04/16 07:39:29;;;;;;;6.45;3.08;;;6.30;99.90;;;;;;5076565;28;20223;-82
2021/04/16 07:42:14;;;;;;;5.00;2.20;;;6.80;99.90;;;;;;5078113;28;20262;-83
2021/04/16 07:44:55;;;;;;;5.80;2.85;;;7.00;99.90;;;;;;5077711;28;20211;-82
2021/04/16 07:47:25;;;;;;;2.92;1.88;;;7.00;99.90;;;;;;5076529;28;20195;-82
2021/04/16 07:49:56;;;;;;;4.55;3.15;;;7.00;99.90;;;;;;5075995;28;20219;-84
2021/04/16 07:52:31;;;;;;;3.08;2.22;;;7.10;99.90;;;;;;5076992;28;20274;-82
2021/04/16 07:55:18;;;;;;;6.55;1.85;;;6.80;99.90;;;;;;5077273;28;20183;-84
2021/04/16 07:58:05;;;;;;;3.28;2.22;;;6.90;99.90;;;;;;5075921;28;20187;-83
2021/04/16 08:00:34;;;;;;;2.50;2.30;;;6.50;99.90;;;;;;5074973;28;20227;-82
2021/04/16 08:03:10;;;;;;;7.50;2.78;;;6.70;99.90;;;;;;5076358;28;20203;-82
2021/04/16 08:05:39;;;;;;;7.97;2.50;;;6.80;99.90;;;;;;5075608;28;20214;-82
2021/04/16 08:08:08;;;;;;;4.03;1.90;;;6.80;99.90;;;;;;5077358;28;20203;-83
2021/04/16 08:10:34;;;;;;;2.85;2.15;;;6.80;99.90;;;;;;5076082;28;20253;-83
2021/04/16 08:13:07;;;;;;;4.18;2.42;;;6.80;99.90;;;;;;5075389;28;20211;-83
2021/04/16 08:15:33;;;;;;;5.90;2.78;;;7.20;99.90;;;;;;5074827;28;20184;-83
2021/04/16 08:18:07;;;;;;;5.80;2.20;;;7.50;99.90;;;;;;5075335;28;20199;-83
2021/04/16 08:20:38;;;;;;;4.63;2.45;;;6.90;99.90;;;;;;5075108;28;20227;-84
2021/04/16 08:23:05;;;;;;;7.63;2.50;;;6.90;99.90;;;;;;5075997;28;20194;-82
2021/04/16 08:25:38;;;;;;;8.40;2.15;;;6.90;99.90;;;;;;5075479;28;20257;-82
2021/04/16 08:28:11;;;;;;;4.28;3.00;;;6.90;99.90;;;;;;5075064;28;20183;-82
2021/04/16 08:33:48;;;;;;;4.50;2.55;;;6.00;99.90;;;;;;5073767;28;20250;-82
2021/04/16 08:36:22;;;;;;;4.97;2.03;;;6.80;99.90;;;;;;5074145;28;20195;-82
2021/04/16 08:38:58;;;;;;;3.47;2.10;;;7.50;99.90;;;;;;5073798;28;20215;-82
2021/04/16 08:41:25;;;;;;;8.90;2.35;;;7.20;99.90;;;;;;5074226;28;20198;-83
2021/04/16 08:43:56;;;;;;;7.18;3.50;;;7.40;99.90;;;;;;5073316;28;20237;-83
2021/04/16 08:46:42;;;;;;;8.98;2.00;;;7.70;99.90;;;;;;5068313;28;20183;-83
2021/04/16 08:49:11;;;;;;;5.60;2.20;;;7.30;99.90;;;;;;5069837;28;20223;-82
2021/04/16 08:51:41;;;;;;;3.33;1.80;;;7.40;99.90;;;;;;5070768;28;20234;-82
2021/04/16 08:54:16;;;;;;;4.30;2.20;;;7.60;99.90;;;;;;5069968;28;20602;-83
2021/04/16 08:56:52;;;;;;;7.80;2.97;;;7.70;99.90;;;;;;5072477;28;20187;-81
2021/04/16 08:59:23;;;;;;;4.72;2.78;;;7.70;99.90;;;;;;5069600;28;20218;-82
2021/04/16 09:01:55;;;;;;;5.15;2.22;;;7.90;99.90;;;;;;5068664;28;20183;-82
2021/04/16 09:04:41;;;;;;;7.57;1.73;;;7.90;99.90;;;;;;5071375;28;20262;-82
2021/04/16 09:07:29;;;;;;;5.75;2.58;;;7.70;99.90;;;;;;5074253;28;20191;-82
2021/04/16 09:09:57;;;;;;;4.93;1.92;;;7.70;99.90;;;;;;5072788;28;20245;-82
2021/04/16 09:12:46;;;;;;;1.92;1.83;;;7.60;99.90;;;;;;5072285;28;20199;-83
2021/04/16 09:15:43;;;;;;;5.22;2.35;;;7.70;99.90;;;;;;5070087;28;20199;-82
2021/04/16 09:18:24;;;;;;;2.33;2.10;;;7.60;99.90;;;;;;5073958;28;20187;-82
2021/04/16 09:21:23;;;;;;;5.15;2.03;;;7.90;99.90;;;;;;5065096;28;20227;-82
2021/04/16 09:23:58;;;;;;;5.78;2.10;;;7.60;99.90;;;;;;5063808;28;20187;-82
2021/04/16 09:27:07;;;;;;;5.38;2.40;;;8.00;99.90;;;;;;5064078;28;20692;-82
2021/04/16 09:29:42;;;;;;;3.33;2.22;;;8.30;99.90;;;;;;5043780;28;20222;-82
2021/04/16 09:32:38;;;;;;;3.20;2.20;;;8.20;99.90;;;;;;5062870;28;20179;-82
2021/04/16 09:35:10;;;;;;;8.80;2.42;;;8.70;99.90;;;;;;5062765;28;20223;-82
2021/04/16 09:37:39;;;;;;;2.30;2.10;;;8.80;99.90;;;;;;5062046;28;20213;-83
2021/04/16 09:40:31;;;;;;;4.72;2.60;;;8.60;99.90;;;;;;5062173;28;20286;-82
2021/04/16 09:42:59;;;;;;;5.05;1.80;;;8.40;99.90;;;;;;5067095;28;20213;-83
2021/04/16 09:45:50;;;;;;;1.60;1.50;;;8.60;99.90;;;;;;5071361;28;20218;-83
2021/04/16 09:48:47;;;;;;;6.78;2.58;;;8.30;99.90;;;;;;5062865;28;20199;-82
2021/04/16 09:51:31;;;;;;;3.20;2.28;;;8.40;99.90;;;;;;5062215;28;20199;-82
2021/04/16 09:54:32;;;;;;;2.42;1.80;;;8.40;99.90;;;;;;5061859;28;20191;-82
2021/04/16 09:57:36;;;;;;;4.75;2.38;;;8.50;99.90;;;;;;5062213;28;20206;-82
2021/04/16 10:00:25;;;;;;;1.70;1.50;;;8.70;99.90;;;;;;5061607;28;20226;-83
2021/04/16 10:03:25;;;;;;;1.95;1.77;;;8.40;99.90;;;;;;5061680;28;20688;-83
2021/04/16 10:05:53;;;;;;;4.32;2.35;;;8.40;99.90;;;;;;5062282;28;20210;-82
2021/04/16 10:08:26;;;;;;;2.85;1.67;;;8.40;99.90;;;;;;5061875;28;20217;-82
2021/04/16 10:10:53;;;;;;;2.13;1.67;;;8.40;99.90;;;;;;5061354;28;20222;-82
2021/04/16 10:13:25;;;;;;;2.58;2.00;;;8.50;99.90;;;;;;5063742;28;20210;-82
2021/04/16 10:15:54;;;;;;;3.20;1.90;;;8.60;99.90;;;;;;5067595;28;20209;-82
2021/04/16 10:18:29;;;;;;;3.15;2.85;;;8.70;99.90;;;;;;5077968;28;20190;-82
2021/04/16 10:21:00;;;;;;;8.18;4.43;;;9.00;99.90;;;;;;5081721;28;20197;-81
2021/04/16 10:23:32;;;;;;;2.38;1.95;;;8.80;99.90;;;;;;5081600;28;20194;-82
2021/04/16 12:38:48;;;;;;;1.77;1.50;;;11.30;99.90;;;;;;5072086;28;20493;-83
2021/04/16 12:41:17;;;;;;;3.67;1.80;;;11.00;99.90;;;;;;5071983;28;20524;-83
2021/04/16 12:43:45;;;;;;;3.23;1.90;;;11.70;99.90;;;;;;5073903;28;20509;-83
2021/04/16 12:46:15;;;;;;;2.70;1.80;;;11.40;99.90;;;;;;5072751;28;20827;-83
2021/04/16 12:48:42;;;;;;;5.77;1.67;;;11.80;99.90;;;;;;5073379;28;20450;-82
2021/04/16 12:51:10;;;;;;;2.83;1.87;;;11.60;99.90;;;;;;5071828;28;20446;-82
2021/04/16 12:53:36;;;;;;;1.87;1.70;;;11.50;99.90;;;;;;5069055;28;20408;-83
2021/04/16 12:56:03;;;;;;;8.67;1.80;;;;;;;;;;5067705;28;20437;-83
2021/04/16 12:58:32;;;;;;;1.77;1.43;;;11.20;99.90;;;;;;5066418;28;20468;-84
2021/04/16 13:01:01;;;;;;;1.73;1.63;;;11.10;99.90;;;;;;5067286;28;20461;-82
2021/04/16 13:03:31;;;;;;;4.07;2.07;;;11.10;99.90;;;;;;5067236;28;20839;-83
2021/04/16 13:05:57;;;;;;;3.30;2.60;;;11.20;99.90;;;;;;5065696;28;20477;-84
2021/04/16 13:08:25;;;;;;;4.03;2.03;;;11.00;99.90;;;;;;5073010;28;20445;-83
2021/04/16 13:10:51;;;;;;;3.80;1.70;;;11.20;99.90;;;;;;5071417;28;20431;-83
2021/04/16 13:13:18;;;;;;;2.20;1.50;;;11.40;99.90;;;;;;5067189;28;20450;-84
2021/04/16 13:15:44;;;;;;;5.80;2.30;;;11.20;99.90;;;;;;5064675;28;20437;-83
2021/04/16 13:18:17;;;;;;;3.97;2.10;;;11.00;99.90;;;;;;5064139;28;20451;-84
2021/04/16 13:20:47;;;;;;;4.67;2.50;;;11.10;99.90;;;;;;5063959;28;20519;-83
2021/04/16 13:23:13;;;;;;;3.47;2.37;;;11.00;99.90;;;;;;5064844;28;20919;-83
2021/04/16 13:25:40;;;;;;;3.63;1.80;;;11.10;99.90;;;;;;5065604;28;20538;-83
2021/04/16 13:28:09;;;;;;;8.00;3.63;;;11.10;99.90;;;;;;5067964;28;20595;-84
2021/04/16 13:30:36;;;;;;;4.17;2.20;;;11.30;99.90;;;;;;5073125;28;20440;-82
2021/04/16 13:33:05;;;;;;;3.90;1.60;;;11.50;99.90;;;;;;5067571;28;20532;-83
2021/04/16 13:35:34;;;;;;;2.40;1.63;;;11.70;99.90;;;;;;5071799;28;20433;-82
2021/04/16 13:38:03;;;;;;;1.73;1.63;;;11.70;99.90;;;;;;5068158;28;20471;-82
2021/04/16 13:40:31;;;;;;;2.87;1.47;;;11.60;98.60;;;;;;5066054;28;20493;-83
2021/04/16 13:42:58;;;;;;;3.63;1.70;;;11.20;98.70;;;;;;5070802;28;20500;-83
2021/04/16 13:45:24;;;;;;;5.13;2.23;;;10.60;99.90;;;;;;5069571;28;21154;-82
2021/04/16 13:47:51;;;;;;;2.20;1.63;;;10.80;97.80;;;;;;5067307;28;20431;-82
2021/04/16 13:50:19;;;;;;;1.93;1.40;;;10.60;98.40;;;;;;5069534;28;20466;-81
2021/04/16 13:52:45;;;;;;;1.83;1.63;;;11.70;99.90;;;;;;5075342;28;20442;-82
2021/04/16 13:55:16;;;;;;;1.83;1.73;;;10.80;99.90;;;;;;5067245;28;20472;-82
2021/04/16 13:57:42;;;;;;;2.27;2.07;;;10.80;99.90;;;;;;5066906;28;20465;-83
2021/04/16 14:00:13;;;;;;;5.53;2.00;;;11.00;98.70;;;;;;5069648;28;20479;-82
2021/04/16 14:02:46;;;;;;;2.87;1.80;;;11.00;98.90;;;;;;5073209;28;20875;-83
2021/04/16 14:05:16;;;;;;;2.77;1.90;;;11.50;99.90;;;;;;5071827;28;20461;-82
2021/04/16 14:07:42;;;;;;;6.00;1.50;;;11.40;99.90;;;;;;5076183;28;20487;-82
2021/04/16 14:10:20;;;;;;;3.50;1.73;;;11.60;99.90;;;;;;5068839;28;20472;-84
2021/04/16 14:12:46;;;;;;;2.40;1.43;;;13.10;99.60;;;;;;5068989;28;20460;-83
2021/04/16 14:15:15;;;;;;;1.67;1.50;;;11.90;98.10;;;;;;5076433;28;20442;-82
2021/04/16 14:17:44;;;;;;;2.10;1.80;;;11.70;98.40;;;;;;5069040;28;20448;-83
2021/04/16 14:20:20;;;;;;;3.17;1.60;;;11.80;98.30;;;;;;5065493;28;20455;-83
2021/04/16 14:22:49;;;;;;;5.33;2.10;;;11.80;97.80;;;;;;5068518;28;20437;-83
2021/04/16 14:25:17;;;;;;;2.93;2.53;;;11.70;98.10;;;;;;5074746;28;20504;-83
2021/04/16 14:27:43;;;;;;;3.27;1.83;;;11.40;99.90;;;;;;5072893;28;20503;-85
2021/04/16 14:30:14;;;;;;;1.93;1.60;;;11.10;98.30;;;;;;5067943;28;20484;-83
2021/04/16 14:32:40;;;;;;;4.43;1.90;;;11.40;98.00;;;;;;5065880;28;20461;-83
2021/04/16 14:35:10;;;;;;;3.72;1.70;;;11.40;98.20;;;;;;5066298;28;20467;-83
2021/04/16 14:37:36;;;;;;;3.58;1.70;;;11.70;99.90;;;;;;5072173;28;20110;-84
2021/04/16 14:40:04;;;;;;;3.70;1.80;;;11.50;97.70;;;;;;5068509;28;20223;-83
2021/04/16 14:42:30;;;;;;;5.37;1.87;;;11.50;98.00;;;;;;5069894;28;20449;-83
2021/04/16 14:44:57;;;;;;;4.70;2.20;;;11.50;98.20;;;;;;5070504;28;20478;-82
2021/04/16 14:47:27;;;;;;;5.43;1.73;;;11.40;98.00;;;;;;5068494;28;20435;-82
2021/04/16 14:49:53;;;;;;;3.37;1.97;;;11.50;99.90;;;;;;5070103;28;20472;-83
2021/04/16 14:52:20;;;;;;;2.30;2.10;;;11.50;97.40;;;;;;5064678;28;20449;-83
2021/04/16 14:54:50;;;;;;;2.30;1.63;;;11.70;96.60;;;;;;5064687;28;20458;-84
2021/04/16 14:57:24;;;;;;;4.03;1.90;;;11.60;95.80;;;;;;5063675;28;20216;-82
2021/04/16 14:59:51;;;;;;;4.50;2.20;;;11.60;95.10;;;;;;5064918;28;20461;-83
2021/04/16 15:02:23;;;;;;;2.53;1.73;;;11.80;94.60;;;;;;5069699;28;20426;-83
2021/04/16 15:04:53;;;;;;;2.28;1.20;;;11.70;93.80;;;;;;5067095;28;20448;-83
2021/04/16 15:07:33;;;;;;;3.40;1.80;;;11.60;99.90;;;;;;5071992;28;20214;-84
2021/04/16 15:10:05;;;;;;;1.67;1.35;;;11.40;92.30;;;;;;5071419;28;20485;-83
2021/04/16 15:12:33;;;;;;;1.40;1.27;;;11.30;92.20;;;;;;5075161;28;20187;-83
2021/04/16 15:15:00;;;;;;;4.73;1.70;;;11.60;93.70;;;;;;5077976;28;20433;-84
2021/04/16 15:17:27;;;;;;;2.28;1.55;;;11.70;94.60;;;;;;5073628;28;20522;-82
2021/04/16 15:19:56;;;;;;;2.00;1.80;;;12.00;99.90;;;;;;5074608;28;20219;-82
2021/04/16 15:22:25;;;;;;;2.63;1.53;;;11.70;95.00;;;;;;5079806;28;20456;-82
2021/04/16 15:24:53;;;;;;;3.47;1.90;;;11.70;94.50;;;;;;5079322;28;20460;-83
2021/04/16 15:27:22;;;;;;;2.80;1.67;;;11.40;92.70;;;;;;5080624;28;20505;-84
2021/04/16 15:29:52;;;;;;;4.43;1.50;;;11.50;92.80;;;;;;5079612;28;20436;-81
2021/04/16 15:32:22;;;;;;;4.03;2.30;;;11.50;92.60;;;;;;5078677;28;20439;-82
2021/04/16 15:48:07;;;;;;;2.55;1.40;;;11.40;99.90;;;;;;5070214;28;20470;-82
2021/04/16 15:50:37;;;;;;;2.90;1.90;;;11.00;92.60;;;;;;5070506;28;20466;-82
2021/04/16 15:53:05;;;;;;;2.50;1.93;;;11.20;92.00;;;;;;5074092;28;20486;-82
2021/04/16 15:55:31;;;;;;;1.70;1.40;;;11.10;90.70;;;;;;5071014;28;20427;-83
2021/04/16 15:57:58;;;;;;;2.33;1.70;;;11.00;92.30;;;;;;5074355;28;20427;-82
2021/04/16 16:00:29;;;;;;;4.57;1.80;;;10.90;92.90;;;;;;5073765;28;20465;-82
2021/04/16 16:02:55;;;;;;;3.57;2.30;;;10.80;92.90;;;;;;5075354;28;20517;-83
2021/04/16 16:05:22;;;;;;;3.80;2.40;;;10.60;99.90;;;;;;5074108;28;20488;-83
2021/04/16 16:07:48;;;;;;;3.73;1.97;;;10.90;99.90;;;;;;5072647;28;20426;-83
2021/04/16 16:10:15;;;;;;;2.23;1.70;;;10.80;99.90;;;;;;5073275;28;20458;-82
2021/04/16 16:12:46;;;;;;;4.17;1.70;;;10.80;94.20;;;;;;5071974;28;20425;-83
2021/04/16 16:15:27;;;;;;;2.50;2.30;;;10.70;95.20;;;;;;5071357;28;20401;-83
2021/04/16 16:17:54;;;;;;;2.57;1.87;;;10.60;95.50;;;;;;5073527;28;20444;-83
2021/04/16 16:20:22;;;;;;;3.30;1.87;;;10.70;96.10;;;;;;5071649;28;20461;-83
2021/04/16 16:22:48;;;;;;;1.97;1.63;;;10.70;96.10;;;;;;5072272;28;20505;-82
2021/04/16 16:25:15;;;;;;;2.37;2.17;;;10.60;99.90;;;;;;5070129;28;20523;-82
2021/04/16 16:27:44;;;;;;;5.40;2.90;;;10.60;96.50;;;;;;5072213;28;20445;-82
2021/04/16 16:30:15;;;;;;;3.43;2.50;;;10.40;96.40;;;;;;5072574;28;20481;-83
2021/04/16 16:32:42;;;;;;;2.30;2.10;;;10.40;96.60;;;;;;5069725;28;20476;-83
2021/04/16 16:35:12;;;;;;;4.50;2.20;;;10.20;96.30;;;;;;5066454;28;20890;-83
2021/04/16 16:37:38;;;;;;;2.90;1.90;;;10.20;96.50;;;;;;5065250;28;20776;-83
2021/04/16 16:40:07;;;;;;;1.93;1.73;;;10.00;95.80;;;;;;5063998;28;20922;-83
2021/04/16 16:42:39;;;;;;;4.63;2.20;;;10.00;96.20;;;;;;5065158;28;20449;-83
2021/04/16 16:45:08;;;;;;;2.30;2.10;;;9.90;96.40;;;;;;5063830;28;20465;-82
2021/04/16 16:47:34;;;;;;;3.23;2.10;;;9.90;96.60;;;;;;5068636;28;20450;-83
2021/04/16 16:50:00;;;;;;;2.60;1.70;;;9.80;96.60;;;;;;5063791;28;20461;-82
2021/04/16 16:52:27;;;;;;;5.63;2.10;;;10.10;99.90;;;;;;5064217;28;20424;-83
2021/04/16 16:54:53;;;;;;;2.07;1.87;;;9.80;97.20;;;;;;5063615;28;20449;-84
2021/04/16 16:57:21;;;;;;;2.40;1.87;;;9.70;99.90;;;;;;5064302;28;20482;-83
2021/04/16 16:59:48;;;;;;;3.33;2.30;;;9.80;97.80;;;;;;5063218;28;20447;-82
2021/04/16 17:02:16;;;;;;;3.20;1.90;;;9.70;98.00;;;;;;5062314;28;20960;-83
2021/04/16 17:04:43;;;;;;;3.30;1.70;;;9.80;98.40;;;;;;5063488;28;20437;-82
2021/04/16 17:07:09;;;;;;;5.43;2.43;;;9.80;98.70;;;;;;5065025;28;20428;-82
2021/04/16 17:09:36;;;;;;;3.50;2.20;;;9.70;99.00;;;;;;5066712;28;20473;-82
2021/04/16 17:12:02;;;;;;;3.40;2.37;;;9.80;99.90;;;;;;5064864;28;20453;-82
2021/04/16 17:14:31;;;;;;;2.73;1.80;;;9.70;99.60;;;;;;5064796;28;20420;-82
2021/04/16 17:16:58;;;;;;;4.40;2.27;;;9.60;99.50;;;;;;5061095;28;20441;-82
2021/04/16 17:19:24;;;;;;;2.40;1.67;;;9.60;99.30;;;;;;5062912;28;20448;-82
2021/04/16 17:21:51;;;;;;;4.82;2.00;;;9.40;99.60;;;;;;5063705;28;20458;-82
2021/04/16 17:24:19;;;;;;;3.17;2.57;;;9.40;99.90;;;;;;5066630;28;20207;-82
2021/04/16 17:26:47;;;;;;;6.50;2.63;;;9.40;99.90;;;;;;5071298;28;20460;-82
2021/04/16 17:29:17;;;;;;;3.43;2.47;;;9.40;99.90;;;;;;5066181;28;20465;-82
2021/04/16 17:31:44;;;;;;;8.90;2.97;;;9.40;99.80;;;;;;5067265;28;20462;-81
2021/04/16 17:34:11;;;;;;;5.45;2.63;;;9.00;99.30;;;;;;5066500;28;20449;-83
2021/04/16 17:36:38;;;;;;;3.00;1.67;;;9.20;99.60;;;;;;5067200;28;20234;-82
2021/04/16 17:39:07;;;;;;;2.50;1.95;;;9.10;99.60;;;;;;5074374;28;20495;-81
2021/04/16 17:41:39;;;;;;;1.45;1.35;;;9.10;99.40;;;;;;5073427;28;20195;-81
2021/04/16 17:44:05;;;;;;;3.63;2.67;;;9.00;99.40;;;;;;5071550;28;20198;-82
2021/04/16 17:46:31;;;;;;;3.60;2.28;;;9.20;99.90;;;;;;5072381;28;20434;-81
2021/04/16 17:48:58;;;;;;;5.57;3.63;;;8.90;99.90;;;;;;5072647;28;20284;-82
2021/04/16 17:51:29;;;;;;;4.77;2.50;;;8.90;99.90;;;;;;5071737;28;20445;-82
2021/04/16 17:53:57;;;;;;;2.97;2.38;;;8.80;99.80;;;;;;5075165;28;20464;-82
2021/04/16 17:56:26;;;;;;;4.80;3.25;;;8.70;99.90;;;;;;5073136;28;20222;-82
2021/04/16 17:58:57;;;;;;;3.03;2.33;;;9.00;99.90;;;;;;5062710;28;20534;-81
2021/04/16 18:01:24;;;;;;;2.70;2.50;;;8.80;99.80;;;;;;5061745;28;20430;-81
2021/04/16 18:03:50;;;;;;;5.10;3.00;;;8.70;99.70;;;;;;5061804;28;21002;-82
2021/04/16 18:06:21;;;;;;;3.53;1.90;;;8.60;99.60;;;;;;5059239;28;20444;-83
2021/04/16 18:08:50;;;;;;;6.57;3.00;;;8.40;99.90;;;;;;5058536;28;20187;-82
2021/04/16 18:11:19;;;;;;;7.07;2.50;;;8.50;99.90;;;;;;5057507;28;20261;-82
2021/04/16 18:13:45;;;;;;;4.18;2.40;;;8.50;99.90;;;;;;5059416;28;20207;-82
2021/04/16 18:16:12;;;;;;;8.07;3.90;;;8.60;99.90;;;;;;5059172;28;20202;-83
2021/04/16 18:18:38;;;;;;;3.63;2.53;;;8.70;99.90;;;;;;5060487;28;20449;-82
2021/04/16 18:21:09;;;;;;;3.35;2.80;;;8.40;99.90;;;;;;5060679;28;20202;-83
2021/04/16 18:23:38;;;;;;;3.08;2.00;;;8.40;99.90;;;;;;5062674;28;20198;-83
2021/04/16 18:26:07;;;;;;;4.88;2.78;;;8.40;99.90;;;;;;5061532;28;20219;-82
2021/04/16 18:28:33;;;;;;;3.67;2.47;;;8.70;99.90;;;;;;5061199;28;20849;-81
2021/04/16 18:31:47;;;;;;;3.85;2.97;;;8.40;99.90;;;;;;5062069;28;20219;-83
2021/04/16 18:34:15;;;;;;;6.78;3.25;;;;;;;;;;5062419;28;20203;-82
2021/04/16 18:36:42;;;;;;;6.53;2.67;;;8.30;99.90;;;;;;5066105;28;20203;-82
2021/04/16 18:39:13;;;;;;;6.50;3.08;;;8.30;99.90;;;;;;5066661;28;20272;-82
2021/04/16 18:41:47;;;;;;;5.50;3.00;;;8.40;99.90;;;;;;5092400;22;20191;-81
2021/04/16 18:45:15;;;;;;;3.22;2.92;;;8.30;99.90;;;;;;5054896;28;20291;-85
2021/04/16 18:47:46;;;;;;;2.63;2.08;;;;;;;;;;5053553;28;20464;-84
2021/04/16 18:51:01;;;;;;;3.40;2.60;;;8.30;99.90;;;;;;5052810;28;20211;-83
2021/04/16 18:54:08;;;;;;;4.75;2.83;;;9.10;99.90;;;;;;4994574;28;20232;-84
2021/04/16 19:03:10;;;;;;;3.38;2.40;;;8.00;99.90;;;;;;4896890;29;20299;-83